Terminal Aerodrome Forecast
Issued by NWS

Home | Current Version | Previous Version | Graphics & Text | Print | Product List | Glossary On
Versions: 1 2 3 4 5 6 7 8 9 10 11 12
000
FTUS45 KGGW 011100
TAFSDY
TAF
KSDY 011120Z 0112/0212 29020G30KT P6SM SCT100
     FM011800 28028G40KT P6SM BKN060
     FM020300 27019KT P6SM SCT150
      AMD LTD TO CLD VIS AND WIND=

USA.gov is the U.S. government's official web portal to all federal, state and local government web resources and services.